sensor_id;sensor_type;location;lat;lon;timestamp;pressure;altitude;pressure_sealevel;temperature;humidity
9189;BME280;34313;50.780;6.084;2023-04-29T00:01:18;99322.13;;;11.37;100.00
9189;BME280;34313;50.780;6.084;2023-04-29T00:03:43;99330.22;;;11.33;100.00
9189;BME280;34313;50.780;6.084;2023-04-29T00:06:08;99333.81;;;11.32;100.00
9189;BME280;34313;50.780;6.084;2023-04-29T00:08:35;99334.31;;;11.25;100.00
9189;BME280;34313;50.780;6.084;2023-04-29T00:11:00;99329.69;;;11.28;100.00
9189;BME280;34313;50.780;6.084;2023-04-29T00:13:26;99340.88;;;11.32;100.00
9189;BME280;34313;50.780;6.084;2023-04-29T00:15:51;99342.69;;;11.31;100.00
9189;BME280;34313;50.780;6.084;2023-04-29T00:18:16;99343.50;;;11.32;100.00
9189;BME280;34313;50.780;6.084;2023-04-29T00:20:41;99333.72;;;11.34;100.00
9189;BME280;34313;50.780;6.084;2023-04-29T00:23:07;99341.28;;;11.26;100.00
9189;BME280;34313;50.780;6.084;2023-04-29T00:25:32;99348.28;;;11.12;100.00
9189;BME280;34313;50.780;6.084;2023-04-29T00:27:58;99351.00;;;11.11;100.00
9189;BME280;34313;50.780;6.084;2023-04-29T00:30:30;99349.97;;;10.99;100.00
9189;BME280;34313;50.780;6.084;2023-04-29T00:32:56;99345.91;;;11.08;100.00
9189;BME280;34313;50.780;6.084;2023-04-29T00:35:21;99350.25;;;11.09;100.00
9189;BME280;34313;50.780;6.084;2023-04-29T00:37:47;99350.72;;;11.15;100.00
9189;BME280;34313;50.780;6.084;2023-04-29T00:40:12;99351.47;;;11.18;100.00
9189;BME280;34313;50.780;6.084;2023-04-29T00:42:39;99352.81;;;11.10;100.00
9189;BME280;34313;50.780;6.084;2023-04-29T00:45:06;99363.94;;;11.01;100.00
9189;BME280;34313;50.780;6.084;2023-04-29T00:47:32;99356.59;;;11.06;100.00
9189;BME280;34313;50.780;6.084;2023-04-29T00:49:57;99359.88;;;10.95;100.00
9189;BME280;34313;50.780;6.084;2023-04-29T00:52:23;99351.69;;;11.00;100.00
9189;BME280;34313;50.780;6.084;2023-04-29T00:54:49;99363.47;;;10.94;100.00
9189;BME280;34313;50.780;6.084;2023-04-29T00:57:14;99358.38;;;10.91;100.00
9189;BME280;34313;50.780;6.084;2023-04-29T00:59:40;99363.06;;;11.01;100.00
9189;BME280;34313;50.780;6.084;2023-04-29T01:02:05;99364.78;;;11.02;100.00
9189;BME280;34313;50.780;6.084;2023-04-29T01:04:31;99368.16;;;11.04;100.00
9189;BME280;34313;50.780;6.084;2023-04-29T01:09:52;99368.16;;;11.04;100.00
9189;BME280;34313;50.780;6.084;2023-04-29T01:12:32;99364.69;;;11.03;100.00
9189;BME280;34313;50.780;6.084;2023-04-29T01:15:04;99370.81;;;10.89;100.00
9189;BME280;34313;50.780;6.084;2023-04-29T01:17:40;99380.59;;;11.02;100.00
9189;BME280;34313;50.780;6.084;2023-04-29T01:20:08;99373.69;;;10.99;100.00
9189;BME280;34313;50.780;6.084;2023-04-29T01:22:34;99377.03;;;11.03;100.00
9189;BME280;34313;50.780;6.084;2023-04-29T01:25:00;99376.25;;;11.01;100.00
9189;BME280;34313;50.780;6.084;2023-04-29T01:31:07;99385.22;;;10.98;100.00
9189;BME280;34313;50.780;6.084;2023-04-29T01:42:04;99381.19;;;10.92;100.00
9189;BME280;34313;50.780;6.084;2023-04-29T01:44:31;99389.84;;;10.80;100.00
9189;BME280;34313;50.780;6.084;2023-04-29T01:46:58;99377.22;;;10.85;100.00
9189;BME280;34313;50.780;6.084;2023-04-29T01:49:26;99384.25;;;10.85;100.00
9189;BME280;34313;50.780;6.084;2023-04-29T01:51:52;99376.44;;;10.83;100.00
9189;BME280;34313;50.780;6.084;2023-04-29T01:54:18;99386.44;;;10.92;100.00
9189;BME280;34313;50.780;6.084;2023-04-29T01:56:43;99382.69;;;10.82;100.00
9189;BME280;34313;50.780;6.084;2023-04-29T01:59:09;99388.88;;;10.81;100.00
9189;BME280;34313;50.780;6.084;2023-04-29T02:01:35;99378.50;;;10.78;100.00
9189;BME280;34313;50.780;6.084;2023-04-29T02:04:00;99380.97;;;10.81;100.00
9189;BME280;34313;50.780;6.084;2023-04-29T02:06:25;99380.88;;;10.83;100.00
9189;BME280;34313;50.780;6.084;2023-04-29T02:08:52;99379.28;;;10.80;100.00
9189;BME280;34313;50.780;6.084;2023-04-29T02:11:17;99390.75;;;10.79;100.00
9189;BME280;34313;50.780;6.084;2023-04-29T02:13:42;99385.88;;;10.73;100.00
9189;BME280;34313;50.780;6.084;2023-04-29T02:16:09;99396.88;;;10.79;100.00
9189;BME280;34313;50.780;6.084;2023-04-29T02:18:35;99391.91;;;10.75;100.00
9189;BME280;34313;50.780;6.084;2023-04-29T02:21:00;99395.28;;;10.77;100.00
9189;BME280;34313;50.780;6.084;2023-04-29T02:23:26;99397.34;;;10.86;100.00
9189;BME280;34313;50.780;6.084;2023-04-29T02:25:51;99403.38;;;10.88;100.00
9189;BME280;34313;50.780;6.084;2023-04-29T02:28:16;99395.69;;;10.85;100.00
9189;BME280;34313;50.780;6.084;2023-04-29T02:30:42;99404.88;;;10.78;100.00
9189;BME280;34313;50.780;6.084;2023-04-29T02:33:07;99415.16;;;10.68;100.00
9189;BME280;34313;50.780;6.084;2023-04-29T02:35:32;99413.91;;;10.59;100.00
9189;BME280;34313;50.780;6.084;2023-04-29T02:37:58;99408.38;;;10.64;100.00
9189;BME280;34313;50.780;6.084;2023-04-29T02:40:23;99412.41;;;10.70;100.00
9189;BME280;34313;50.780;6.084;2023-04-29T02:42:49;99415.16;;;10.68;100.00
9189;BME280;34313;50.780;6.084;2023-04-29T02:45:15;99421.63;;;10.63;100.00
9189;BME280;34313;50.780;6.084;2023-04-29T02:47:40;99418.13;;;10.62;100.00
9189;BME280;34313;50.780;6.084;2023-04-29T02:50:06;99422.94;;;10.55;100.00
9189;BME280;34313;50.780;6.084;2023-04-29T02:52:31;99426.25;;;10.59;100.00
9189;BME280;34313;50.780;6.084;2023-04-29T02:54:56;99430.72;;;10.57;100.00
9189;BME280;34313;50.780;6.084;2023-04-29T02:57:22;99429.13;;;10.54;100.00
9189;BME280;34313;50.780;6.084;2023-04-29T02:59:47;99433.66;;;10.52;100.00
9189;BME280;34313;50.780;6.084;2023-04-29T03:02:12;99437.03;;;10.40;100.00
9189;BME280;34313;50.780;6.084;2023-04-29T03:04:39;99442.47;;;10.37;100.00
9189;BME280;34313;50.780;6.084;2023-04-29T03:07:04;99434.81;;;10.32;100.00
9189;BME280;34313;50.780;6.084;2023-04-29T03:09:29;99438.63;;;10.27;100.00
9189;BME280;34313;50.780;6.084;2023-04-29T03:11:56;99441.97;;;10.14;100.00
9189;BME280;34313;50.780;6.084;2023-04-29T03:14:21;99437.91;;;10.09;100.00
9189;BME280;34313;50.780;6.084;2023-04-29T03:16:46;99441.84;;;10.01;100.00
9189;BME280;34313;50.780;6.084;2023-04-29T03:19:11;99439.38;;;9.98;100.00
9189;BME280;34313;50.780;6.084;2023-04-29T03:21:37;99441.50;;;9.92;100.00
9189;BME280;34313;50.780;6.084;2023-04-29T03:24:02;99441.50;;;9.92;100.00
9189;BME280;34313;50.780;6.084;2023-04-29T03:26:27;99445.31;;;10.02;100.00
9189;BME280;34313;50.780;6.084;2023-04-29T03:28:53;99448.59;;;10.06;100.00
9189;BME280;34313;50.780;6.084;2023-04-29T03:31:18;99456.34;;;10.09;100.00
9189;BME280;34313;50.780;6.084;2023-04-29T03:33:45;99450.91;;;10.12;100.00
9189;BME280;34313;50.780;6.084;2023-04-29T03:36:10;99450.41;;;10.05;100.00
9189;BME280;34313;50.780;6.084;2023-04-29T03:38:36;99455.38;;;10.10;100.00
9189;BME280;34313;50.780;6.084;2023-04-29T03:41:01;99448.19;;;9.97;100.00
9189;BME280;34313;50.780;6.084;2023-04-29T03:43:26;99457.28;;;9.92;100.00
9189;BME280;34313;50.780;6.084;2023-04-29T03:45:52;99457.38;;;9.90;100.00
9189;BME280;34313;50.780;6.084;2023-04-29T03:48:17;99463.25;;;9.79;100.00
9189;BME280;34313;50.780;6.084;2023-04-29T03:50:43;99456.47;;;9.75;100.00
9189;BME280;34313;50.780;6.084;2023-04-29T03:53:09;99459.84;;;9.77;100.00
9189;BME280;34313;50.780;6.084;2023-04-29T03:55:34;99454.16;;;9.69;100.00
9189;BME280;34313;50.780;6.084;2023-04-29T03:57:59;99466.31;;;9.72;100.00
9189;BME280;34313;50.780;6.084;2023-04-29T04:00:25;99469.88;;;9.71;100.00
9189;BME280;34313;50.780;6.084;2023-04-29T04:02:51;99467.81;;;9.60;100.00
9189;BME280;34313;50.780;6.084;2023-04-29T04:05:16;99468.84;;;9.57;100.00
9189;BME280;34313;50.780;6.084;2023-04-29T04:07:45;99468.41;;;9.49;100.00
9189;BME280;34313;50.780;6.084;2023-04-29T04:10:10;99473.31;;;9.55;100.00
9189;BME280;34313;50.780;6.084;2023-04-29T04:12:35;99457.06;;;9.49;100.00
9189;BME280;34313;50.780;6.084;2023-04-29T04:15:00;99478.59;;;9.55;100.00
9189;BME280;34313;50.780;6.084;2023-04-29T04:17:26;99484.03;;;9.52;100.00
9189;BME280;34313;50.780;6.084;2023-04-29T04:19:51;99471.56;;;9.40;100.00
9189;BME280;34313;50.780;6.084;2023-04-29T04:22:18;99483.41;;;9.31;100.00
9189;BME280;34313;50.780;6.084;2023-04-29T04:24:43;99492.31;;;9.28;100.00
9189;BME280;34313;50.780;6.084;2023-04-29T04:27:08;99493.84;;;9.33;100.00
9189;BME280;34313;50.780;6.084;2023-04-29T04:29:34;99488.00;;;9.27;100.00
9189;BME280;34313;50.780;6.084;2023-04-29T04:31:59;99497.72;;;9.25;100.00
9189;BME280;34313;50.780;6.084;2023-04-29T04:34:25;99494.16;;;9.26;100.00
9189;BME280;34313;50.780;6.084;2023-04-29T04:36:51;99500.84;;;9.16;100.00
9189;BME280;34313;50.780;6.084;2023-04-29T04:39:16;99502.47;;;9.19;100.00
9189;BME280;34313;50.780;6.084;2023-04-29T04:41:41;99507.88;;;9.16;100.00
9189;BME280;34313;50.780;6.084;2023-04-29T04:44:07;99514.75;;;9.18;100.00
9189;BME280;34313;50.780;6.084;2023-04-29T04:46:32;99513.22;;;9.14;100.00
9189;BME280;34313;50.780;6.084;2023-04-29T04:48:58;99522.91;;;9.14;100.00
9189;BME280;34313;50.780;6.084;2023-04-29T04:51:23;99523.13;;;9.09;100.00
9189;BME280;34313;50.780;6.084;2023-04-29T04:53:48;99528.25;;;9.12;100.00
9189;BME280;34313;50.780;6.084;2023-04-29T04:56:14;99527.06;;;9.18;100.00
9189;BME280;34313;50.780;6.084;2023-04-29T04:58:39;99539.44;;;9.16;100.00
9189;BME280;34313;50.780;6.084;2023-04-29T05:01:04;99535.19;;;9.13;100.00
9189;BME280;34313;50.780;6.084;2023-04-29T05:03:30;99541.13;;;9.17;100.00
9189;BME280;34313;50.780;6.084;2023-04-29T05:05:56;99542.44;;;9.08;100.00
9189;BME280;34313;50.780;6.084;2023-04-29T05:08:22;99551.28;;;9.07;100.00
9189;BME280;34313;50.780;6.084;2023-04-29T05:10:48;99552.28;;;9.04;100.00
9189;BME280;34313;50.780;6.084;2023-04-29T05:13:13;99555.59;;;9.08;100.00
9189;BME280;34313;50.780;6.084;2023-04-29T05:15:38;99561.66;;;9.10;100.00
9189;BME280;34313;50.780;6.084;2023-04-29T05:18:04;99564.50;;;9.05;100.00
9189;BME280;34313;50.780;6.084;2023-04-29T05:20:29;99571.16;;;9.13;100.00
9189;BME280;34313;50.780;6.084;2023-04-29T05:22:54;99560.41;;;9.17;100.00
9189;BME280;34313;50.780;6.084;2023-04-29T05:25:20;99570.06;;;9.17;100.00
9189;BME280;34313;50.780;6.084;2023-04-29T05:27:45;99565.97;;;9.11;100.00
9189;BME280;34313;50.780;6.084;2023-04-29T05:30:11;99576.25;;;9.16;100.00
9189;BME280;34313;50.780;6.084;2023-04-29T05:32:36;99585.81;;;9.17;100.00
9189;BME280;34313;50.780;6.084;2023-04-29T05:35:02;99588.72;;;9.12;100.00
9189;BME280;34313;50.780;6.084;2023-04-29T05:37:27;99583.75;;;9.06;100.00
9189;BME280;34313;50.780;6.084;2023-04-29T05:39:55;99588.25;;;9.04;100.00
9189;BME280;34313;50.780;6.084;2023-04-29T05:42:20;99589.41;;;8.98;100.00
9189;BME280;34313;50.780;6.084;2023-04-29T05:44:47;99593.72;;;8.99;100.00
9189;BME280;34313;50.780;6.084;2023-04-29T05:47:12;99599.31;;;9.11;100.00
9189;BME280;34313;50.780;6.084;2023-04-29T05:49:38;99594.19;;;9.07;100.00
9189;BME280;34313;50.780;6.084;2023-04-29T05:52:03;99603.88;;;9.07;100.00
9189;BME280;34313;50.780;6.084;2023-04-29T05:54:31;99611.81;;;9.05;100.00
9189;BME280;34313;50.780;6.084;2023-04-29T05:56:56;99623.81;;;9.11;100.00
9189;BME280;34313;50.780;6.084;2023-04-29T05:59:22;99620.88;;;9.17;100.00
9189;BME280;34313;50.780;6.084;2023-04-29T06:01:47;99625.19;;;9.18;100.00
9189;BME280;34313;50.780;6.084;2023-04-29T06:04:12;99625.38;;;9.15;100.00
9189;BME280;34313;50.780;6.084;2023-04-29T06:06:37;99621.44;;;9.24;100.00
9189;BME280;34313;50.780;6.084;2023-04-29T06:09:03;99630.16;;;9.42;100.00
9189;BME280;34313;50.780;6.084;2023-04-29T06:11:29;99627.72;;;9.55;100.00
9189;BME280;34313;50.780;6.084;2023-04-29T06:13:54;99629.56;;;9.70;100.00
9189;BME280;34313;50.780;6.084;2023-04-29T06:16:19;99634.19;;;9.82;100.00
9189;BME280;34313;50.780;6.084;2023-04-29T06:18:45;99632.22;;;9.86;100.00
9189;BME280;34313;50.780;6.084;2023-04-29T06:21:10;99636.31;;;9.92;100.00
9189;BME280;34313;50.780;6.084;2023-04-29T06:23:36;99645.09;;;9.92;100.00
9189;BME280;34313;50.780;6.084;2023-04-29T06:26:01;99640.53;;;10.12;100.00
9189;BME280;34313;50.780;6.084;2023-04-29T06:28:27;99651.66;;;10.17;100.00
9189;BME280;34313;50.780;6.084;2023-04-29T06:30:53;99643.09;;;10.13;100.00
9189;BME280;34313;50.780;6.084;2023-04-29T06:33:19;99649.25;;;10.12;100.00
9189;BME280;34313;50.780;6.084;2023-04-29T06:35:44;99647.81;;;10.07;100.00
9189;BME280;34313;50.780;6.084;2023-04-29T06:38:09;99649.09;;;10.15;100.00
9189;BME280;34313;50.780;6.084;2023-04-29T06:40:35;99658.66;;;10.34;100.00
9189;BME280;34313;50.780;6.084;2023-04-29T06:43:00;99660.03;;;10.41;100.00
9189;BME280;34313;50.780;6.084;2023-04-29T06:45:26;99656.69;;;10.53;100.00
9189;BME280;34313;50.780;6.084;2023-04-29T06:47:52;99664.13;;;10.63;100.00
9189;BME280;34313;50.780;6.084;2023-04-29T06:50:17;99659.00;;;10.59;100.00
9189;BME280;34313;50.780;6.084;2023-04-29T06:52:42;99664.34;;;10.74;100.00
9189;BME280;34313;50.780;6.084;2023-04-29T06:55:08;99674.47;;;10.82;100.00
9189;BME280;34313;50.780;6.084;2023-04-29T06:57:35;99674.88;;;10.90;100.00
9189;BME280;34313;50.780;6.084;2023-04-29T07:00:01;99680.56;;;10.98;100.00
9189;BME280;34313;50.780;6.084;2023-04-29T07:02:26;99669.44;;;10.93;100.00
9189;BME280;34313;50.780;6.084;2023-04-29T07:04:52;99677.41;;;11.07;100.00
9189;BME280;34313;50.780;6.084;2023-04-29T07:07:17;99683.94;;;11.16;100.00
9189;BME280;34313;50.780;6.084;2023-04-29T07:09:43;99681.03;;;11.21;100.00
9189;BME280;34313;50.780;6.084;2023-04-29T07:12:08;99692.81;;;11.15;100.00
9189;BME280;34313;50.780;6.084;2023-04-29T07:14:33;99696.56;;;10.95;100.00
9189;BME280;34313;50.780;6.084;2023-04-29T07:17:01;99690.44;;;10.94;100.00
9189;BME280;34313;50.780;6.084;2023-04-29T07:19:26;99694.88;;;10.94;100.00
9189;BME280;34313;50.780;6.084;2023-04-29T07:21:52;99696.47;;;10.96;100.00
9189;BME280;34313;50.780;6.084;2023-04-29T07:24:17;99703.03;;;11.05;100.00
9189;BME280;34313;50.780;6.084;2023-04-29T07:26:43;99702.59;;;10.97;100.00
9189;BME280;34313;50.780;6.084;2023-04-29T07:29:11;99700.63;;;11.01;100.00
9189;BME280;34313;50.780;6.084;2023-04-29T07:31:36;99705.22;;;10.97;100.00
9189;BME280;34313;50.780;6.084;2023-04-29T07:34:02;99710.72;;;10.94;100.00
9189;BME280;34313;50.780;6.084;2023-04-29T07:36:28;99716.81;;;10.94;100.00
9189;BME280;34313;50.780;6.084;2023-04-29T07:38:53;99719.88;;;10.71;100.00
9189;BME280;34313;50.780;6.084;2023-04-29T07:41:19;99722.28;;;10.59;100.00
9189;BME280;34313;50.780;6.084;2023-04-29T07:43:44;99726.34;;;10.49;100.00
9189;BME280;34313;50.780;6.084;2023-04-29T07:46:10;99728.13;;;10.49;100.00
9189;BME280;34313;50.780;6.084;2023-04-29T07:48:37;99725.50;;;10.49;100.00
9189;BME280;34313;50.780;6.084;2023-04-29T07:51:03;99729.22;;;10.45;100.00
9189;BME280;34313;50.780;6.084;2023-04-29T07:53:29;99727.31;;;10.64;100.00
9189;BME280;34313;50.780;6.084;2023-04-29T07:55:54;99727.47;;;10.61;100.00
9189;BME280;34313;50.780;6.084;2023-04-29T07:58:20;99736.22;;;10.77;100.00
9189;BME280;34313;50.780;6.084;2023-04-29T08:00:46;99736.28;;;10.92;100.00
9189;BME280;34313;50.780;6.084;2023-04-29T08:03:11;99738.06;;;11.07;100.00
9189;BME280;34313;50.780;6.084;2023-04-29T08:05:37;99736.03;;;11.12;100.00
9189;BME280;34313;50.780;6.084;2023-04-29T08:08:03;99744.03;;;11.41;100.00
9189;BME280;34313;50.780;6.084;2023-04-29T08:10:28;99743.06;;;11.58;100.00
9189;BME280;34313;50.780;6.084;2023-04-29T08:12:53;99747.13;;;11.64;100.00
9189;BME280;34313;50.780;6.084;2023-04-29T08:15:18;99751.03;;;11.72;99.01
9189;BME280;34313;50.780;6.084;2023-04-29T08:17:44;99758.03;;;11.73;98.02
9189;BME280;34313;50.780;6.084;2023-04-29T08:20:10;99754.72;;;11.70;97.75
9189;BME280;34313;50.780;6.084;2023-04-29T08:22:35;99759.91;;;11.71;96.53
9189;BME280;34313;50.780;6.084;2023-04-29T08:25:02;99759.31;;;11.66;94.81
9189;BME280;34313;50.780;6.084;2023-04-29T08:27:29;99766.84;;;11.58;95.78
9189;BME280;34313;50.780;6.084;2023-04-29T08:29:54;99754.19;;;11.49;96.72
9189;BME280;34313;50.780;6.084;2023-04-29T08:32:20;99761.25;;;11.48;97.04
9189;BME280;34313;50.780;6.084;2023-04-29T08:34:45;99767.31;;;11.34;97.05
9189;BME280;34313;50.780;6.084;2023-04-29T08:37:11;99773.97;;;11.26;98.13
9189;BME280;34313;50.780;6.084;2023-04-29T08:39:36;99779.94;;;11.13;98.42
9189;BME280;34313;50.780;6.084;2023-04-29T08:42:08;99780.34;;;11.06;98.26
9189;BME280;34313;50.780;6.084;2023-04-29T08:44:35;99779.06;;;10.97;99.13
9189;BME280;34313;50.780;6.084;2023-04-29T08:47:01;99778.47;;;10.92;100.00
9189;BME280;34313;50.780;6.084;2023-04-29T08:49:30;99769.50;;;10.96;100.00
9189;BME280;34313;50.780;6.084;2023-04-29T08:51:57;99780.19;;;11.09;100.00
9189;BME280;34313;50.780;6.084;2023-04-29T08:54:23;99786.75;;;11.18;99.38
9189;BME280;34313;50.780;6.084;2023-04-29T08:56:49;99776.69;;;11.24;99.66
9189;BME280;34313;50.780;6.084;2023-04-29T08:59:17;99790.13;;;11.35;98.16
9189;BME280;34313;50.780;6.084;2023-04-29T09:01:43;99781.59;;;11.46;97.30
9189;BME280;34313;50.780;6.084;2023-04-29T09:04:52;99790.25;;;11.64;97.87
9189;BME280;34313;50.780;6.084;2023-04-29T09:07:20;99786.16;;;11.89;96.51
9189;BME280;34313;50.780;6.084;2023-04-29T09:09:47;99788.78;;;12.05;95.18
9189;BME280;34313;50.780;6.084;2023-04-29T09:12:12;99793.03;;;12.22;94.61
9189;BME280;34313;50.780;6.084;2023-04-29T09:14:38;99795.78;;;12.35;94.13
9189;BME280;34313;50.780;6.084;2023-04-29T09:17:03;99801.34;;;12.44;93.19
9189;BME280;34313;50.780;6.084;2023-04-29T09:19:32;99801.34;;;12.44;91.76
9189;BME280;34313;50.780;6.084;2023-04-29T09:21:58;99802.00;;;12.34;90.78
9189;BME280;34313;50.780;6.084;2023-04-29T09:24:25;99809.09;;;12.33;90.36
9189;BME280;34313;50.780;6.084;2023-04-29T09:26:51;99807.22;;;12.35;90.54
9189;BME280;34313;50.780;6.084;2023-04-29T09:29:17;99813.63;;;12.31;90.83
9189;BME280;34313;50.780;6.084;2023-04-29T09:31:43;99818.19;;;12.43;91.07
9189;BME280;34313;50.780;6.084;2023-04-29T09:34:09;99816.94;;;12.35;90.77
9189;BME280;34313;50.780;6.084;2023-04-29T09:39:08;99823.66;;;11.80;90.07
9189;BME280;34313;50.780;6.084;2023-04-29T09:41:58;99833.13;;;11.84;91.19
9189;BME280;34313;50.780;6.084;2023-04-29T09:44:24;99825.03;;;11.87;92.22
9189;BME280;34313;50.780;6.084;2023-04-29T09:47:00;99835.25;;;11.77;92.18
9189;BME280;34313;50.780;6.084;2023-04-29T09:49:27;99829.06;;;11.62;92.54
9189;BME280;34313;50.780;6.084;2023-04-29T09:51:58;99840.22;;;11.67;93.00
9189;BME280;34313;50.780;6.084;2023-04-29T09:54:25;99840.81;;;11.72;93.11
9189;BME280;34313;50.780;6.084;2023-04-29T09:56:53;99831.25;;;11.86;93.00
9189;BME280;34313;50.780;6.084;2023-04-29T09:59:19;99833.09;;;12.00;92.02
9189;BME280;34313;50.780;6.084;2023-04-29T10:01:53;99838.44;;;12.28;90.31
9189;BME280;34313;50.780;6.084;2023-04-29T10:04:22;99843.38;;;12.63;88.21
9189;BME280;34313;50.780;6.084;2023-04-29T10:06:50;99843.84;;;13.13;86.28
9189;BME280;34313;50.780;6.084;2023-04-29T10:09:16;99849.72;;;13.46;84.88
9189;BME280;34313;50.780;6.084;2023-04-29T10:11:47;99851.94;;;13.66;82.33
9189;BME280;34313;50.780;6.084;2023-04-29T10:14:20;99864.31;;;13.38;81.91
9189;BME280;34313;50.780;6.084;2023-04-29T10:17:01;99861.72;;;13.51;81.74
9189;BME280;34313;50.780;6.084;2023-04-29T10:19:46;99864.69;;;13.47;82.04
9189;BME280;34313;50.780;6.084;2023-04-29T10:22:19;99859.47;;;13.45;81.35
9189;BME280;34313;50.780;6.084;2023-04-29T10:24:47;99859.97;;;13.37;82.20
9189;BME280;34313;50.780;6.084;2023-04-29T10:27:14;99861.34;;;13.57;81.75
9189;BME280;34313;50.780;6.084;2023-04-29T10:29:42;99853.34;;;14.12;79.27
9189;BME280;34313;50.780;6.084;2023-04-29T10:32:08;99855.53;;;15.21;75.46
9189;BME280;34313;50.780;6.084;2023-04-29T10:34:36;99844.47;;;16.35;69.94
9189;BME280;34313;50.780;6.084;2023-04-29T10:37:02;99854.97;;;17.49;65.09
9189;BME280;34313;50.780;6.084;2023-04-29T10:39:38;99838.28;;;18.33;60.39
9189;BME280;34313;50.780;6.084;2023-04-29T10:42:19;99837.16;;;18.57;57.50
9189;BME280;34313;50.780;6.084;2023-04-29T10:45:22;99846.34;;;18.64;55.62
9189;BME280;34313;50.780;6.084;2023-04-29T10:50:34;99848.56;;;18.17;55.08
9189;BME280;34313;50.780;6.084;2023-04-29T10:53:03;99859.19;;;17.63;56.09
9189;BME280;34313;50.780;6.084;2023-04-29T10:55:29;99853.94;;;17.18;57.12
9189;BME280;34313;50.780;6.084;2023-04-29T10:57:55;99853.69;;;16.76;58.55
9189;BME280;34313;50.780;6.084;2023-04-29T11:00:23;99855.44;;;16.19;59.99
9189;BME280;34313;50.780;6.084;2023-04-29T11:02:52;99852.94;;;15.69;62.10
9189;BME280;34313;50.780;6.084;2023-04-29T11:05:29;99853.63;;;15.23;64.31
9189;BME280;34313;50.780;6.084;2023-04-29T11:08:10;99854.72;;;15.07;65.49
9189;BME280;34313;50.780;6.084;2023-04-29T11:10:39;99856.84;;;15.02;66.42
9189;BME280;34313;50.780;6.084;2023-04-29T11:16:03;99851.41;;;15.17;65.33
9189;BME280;34313;50.780;6.084;2023-04-29T11:18:29;99849.00;;;14.88;66.02
9189;BME280;34313;50.780;6.084;2023-04-29T11:23:36;99861.41;;;14.23;69.33
9189;BME280;34313;50.780;6.084;2023-04-29T11:26:02;99857.44;;;14.03;70.15
9189;BME280;34313;50.780;6.084;2023-04-29T11:28:29;99855.41;;;13.94;70.80
9189;BME280;34313;50.780;6.084;2023-04-29T11:30:58;99866.38;;;13.48;72.07
9189;BME280;34313;50.780;6.084;2023-04-29T11:33:25;99870.09;;;13.31;73.26
9189;BME280;34313;50.780;6.084;2023-04-29T11:35:54;99864.97;;;13.28;74.30
9189;BME280;34313;50.780;6.084;2023-04-29T11:38:29;99869.09;;;13.46;74.11
9189;BME280;34313;50.780;6.084;2023-04-29T11:40:56;99873.69;;;13.71;74.16
9189;BME280;34313;50.780;6.084;2023-04-29T11:43:24;99869.22;;;13.99;73.16
9189;BME280;34313;50.780;6.084;2023-04-29T11:45:51;99867.13;;;14.17;72.02
9189;BME280;34313;50.780;6.084;2023-04-29T11:50:46;99864.06;;;14.49;70.32
9189;BME280;34313;50.780;6.084;2023-04-29T11:53:12;99871.59;;;14.55;70.24
9189;BME280;34313;50.780;6.084;2023-04-29T11:55:40;99869.00;;;14.68;69.60
9189;BME280;34313;50.780;6.084;2023-04-29T11:58:06;99868.78;;;14.84;69.35
9189;BME280;34313;50.780;6.084;2023-04-29T12:00:31;99871.44;;;14.84;68.49
9189;BME280;34313;50.780;6.084;2023-04-29T12:02:57;99877.47;;;14.86;68.34
9189;BME280;34313;50.780;6.084;2023-04-29T12:05:24;99878.22;;;14.88;68.47
9189;BME280;34313;50.780;6.084;2023-04-29T12:07:50;99874.69;;;15.00;67.86
9189;BME280;34313;50.780;6.084;2023-04-29T12:10:15;99877.09;;;15.29;67.05
9189;BME280;34313;50.780;6.084;2023-04-29T12:12:41;99870.56;;;15.70;65.76
9189;BME280;34313;50.780;6.084;2023-04-29T12:15:11;99871.31;;;15.96;63.83
9189;BME280;34313;50.780;6.084;2023-04-29T12:17:37;99865.22;;;16.18;62.91
9189;BME280;34313;50.780;6.084;2023-04-29T12:20:04;99868.53;;;16.33;62.21
9189;BME280;34313;50.780;6.084;2023-04-29T12:22:30;99868.63;;;16.20;60.96
9189;BME280;34313;50.780;6.084;2023-04-29T12:24:56;99872.31;;;16.06;62.01
9189;BME280;34313;50.780;6.084;2023-04-29T12:27:21;99877.25;;;15.76;61.46
9189;BME280;34313;50.780;6.084;2023-04-29T12:29:47;99870.66;;;16.17;61.13
9189;BME280;34313;50.780;6.084;2023-04-29T12:32:16;99868.91;;;16.51;60.48
9189;BME280;34313;50.780;6.084;2023-04-29T12:34:44;99875.09;;;16.52;59.93
9189;BME280;34313;50.780;6.084;2023-04-29T12:37:11;99877.03;;;16.50;59.86
9189;BME280;34313;50.780;6.084;2023-04-29T12:39:37;99880.13;;;16.32;60.65
9189;BME280;34313;50.780;6.084;2023-04-29T12:42:03;99875.66;;;16.33;60.78
9189;BME280;34313;50.780;6.084;2023-04-29T12:44:35;99868.31;;;16.48;60.63
9189;BME280;34313;50.780;6.084;2023-04-29T12:47:08;99873.94;;;17.01;60.10
9189;BME280;34313;50.780;6.084;2023-04-29T12:49:35;99872.78;;;17.49;58.90
9189;BME280;34313;50.780;6.084;2023-04-29T12:52:01;99880.59;;;17.29;58.03
9189;BME280;34313;50.780;6.084;2023-04-29T12:54:27;99874.50;;;17.38;57.84
9189;BME280;34313;50.780;6.084;2023-04-29T12:56:52;99884.13;;;17.18;58.37
9189;BME280;34313;50.780;6.084;2023-04-29T12:59:18;99875.06;;;16.29;60.86
9189;BME280;34313;50.780;6.084;2023-04-29T13:01:43;99871.34;;;16.54;60.34
9189;BME280;34313;50.780;6.084;2023-04-29T13:04:08;99886.81;;;16.38;60.72
9189;BME280;34313;50.780;6.084;2023-04-29T13:06:36;99888.75;;;16.47;60.16
9189;BME280;34313;50.780;6.084;2023-04-29T13:09:06;99890.84;;;16.66;59.71
9189;BME280;34313;50.780;6.084;2023-04-29T13:11:35;99887.34;;;16.77;59.29
9189;BME280;34313;50.780;6.084;2023-04-29T13:14:01;99885.50;;;16.77;59.85
9189;BME280;34313;50.780;6.084;2023-04-29T13:16:26;99890.78;;;17.01;59.33
9189;BME280;34313;50.780;6.084;2023-04-29T13:18:52;99886.75;;;17.30;58.26
9189;BME280;34313;50.780;6.084;2023-04-29T13:21:17;99881.94;;;17.24;57.85
9189;BME280;34313;50.780;6.084;2023-04-29T13:23:43;99885.88;;;17.52;57.64
9189;BME280;34313;50.780;6.084;2023-04-29T13:26:09;99881.22;;;17.22;57.33
9189;BME280;34313;50.780;6.084;2023-04-29T13:28:34;99881.56;;;16.94;57.99
9189;BME280;34313;50.780;6.084;2023-04-29T13:31:00;99875.44;;;16.58;59.42
9189;BME280;34313;50.780;6.084;2023-04-29T13:33:25;99880.75;;;16.36;60.88